createdAt,value
2022-08-14T09:19:55.385Z,8.40
2022-08-14T09:22:35.603Z,9.20
2022-08-14T09:25:15.073Z,9.60
2022-08-14T09:27:43.612Z,9.57
2022-08-14T09:30:30.784Z,8.73
2022-08-14T09:33:13.211Z,9.80
2022-08-14T09:35:56.506Z,9.60
2022-08-14T09:38:34.565Z,9.00
2022-08-14T09:41:11.998Z,8.80
2022-08-14T09:43:50.009Z,8.97
2022-08-14T09:46:21.288Z,9.00
2022-08-14T09:48:59.817Z,7.93
2022-08-14T09:51:32.595Z,8.50
2022-08-14T09:54:18.741Z,9.20
2022-08-14T09:56:57.168Z,8.43
2022-08-14T09:59:32.053Z,8.30
2022-08-14T10:02:01.825Z,7.60
2022-08-14T10:04:34.799Z,7.07
2022-08-14T10:07:08.356Z,6.63
2022-08-14T10:09:59.883Z,7.00
2022-08-14T10:12:50.003Z,6.60
2022-08-14T10:15:23.900Z,6.30
2022-08-14T10:18:03.660Z,6.13
2022-08-14T10:20:41.095Z,6.10
2022-08-14T10:23:16.298Z,6.47
2022-08-14T10:25:52.999Z,5.80
2022-08-14T10:29:03.909Z,6.43
2022-08-14T10:31:25.791Z,6.20
2022-08-14T10:34:12.883Z,6.10
2022-08-14T10:36:45.719Z,6.70
2022-08-14T10:39:20.140Z,6.33
2022-08-14T10:41:54.095Z,6.40
2022-08-14T10:44:29.708Z,6.60
2022-08-14T10:47:39.978Z,7.20
2022-08-14T10:49:59.814Z,7.20
2022-08-14T10:52:31.840Z,6.60
2022-08-14T10:55:13.926Z,7.03
2022-08-14T10:57:51.153Z,6.47
2022-08-14T11:00:30.240Z,6.67
2022-08-14T11:03:09.410Z,6.40
2022-08-14T11:05:43.872Z,7.00
2022-08-14T11:08:15.459Z,6.77
2022-08-14T11:10:48.013Z,7.00
2022-08-14T11:13:24.073Z,6.83
2022-08-14T11:15:54.421Z,6.40
2022-08-14T11:18:35.673Z,6.50
2022-08-14T11:21:06.966Z,6.60
2022-08-14T11:23:43.865Z,6.63
2022-08-14T11:26:16.473Z,6.83
2022-08-14T11:28:48.713Z,6.20
2022-08-14T11:31:22.080Z,6.37
2022-08-14T11:33:53.085Z,5.63
2022-08-14T11:36:57.163Z,5.60
2022-08-14T11:39:33.564Z,5.80
2022-08-14T11:42:56.758Z,5.63
2022-08-14T11:45:00.078Z,6.07
2022-08-14T11:47:35.371Z,5.67
2022-08-14T11:50:33.407Z,5.80
2022-08-14T11:53:04.774Z,6.00
2022-08-14T11:55:38.139Z,6.03
2022-08-14T11:58:10.943Z,5.83
2022-08-14T12:00:48.597Z,5.60
2022-08-14T12:03:22.755Z,5.70
2022-08-14T12:06:07.167Z,6.00
2022-08-14T12:09:00.060Z,5.57
2022-08-14T12:11:43.237Z,5.97
2022-08-14T12:14:30.440Z,6.13
2022-08-14T12:17:11.823Z,5.67
2022-08-14T12:19:53.735Z,6.50
2022-08-14T12:22:35.408Z,6.47
2022-08-14T12:25:10.106Z,6.57
2022-08-14T12:27:52.647Z,6.37
2022-08-14T12:30:37.737Z,6.50
2022-08-14T12:33:25.677Z,6.30
2022-08-14T12:35:58.572Z,6.43
2022-08-14T12:38:36.114Z,6.23
2022-08-14T12:41:06.513Z,6.30
2022-08-14T12:43:48.116Z,6.53
2022-08-14T12:46:29.134Z,6.37
2022-08-14T12:49:00.043Z,6.67
2022-08-14T12:51:31.385Z,6.30
2022-08-14T12:54:00.661Z,6.20
2022-08-14T12:56:34.006Z,5.80
2022-08-14T12:59:03.484Z,5.60
2022-08-14T13:01:56.762Z,5.83
2022-08-14T13:04:23.472Z,5.50
2022-08-14T13:06:53.077Z,5.17
2022-08-14T13:09:27.863Z,5.60
2022-08-14T13:12:33.269Z,5.47
2022-08-14T13:14:59.020Z,5.17
2022-08-14T13:17:29.265Z,5.40
2022-08-14T13:20:10.105Z,6.00
2022-08-14T13:22:42.744Z,6.13
2022-08-14T13:25:15.742Z,5.37
2022-08-14T13:27:46.504Z,5.70
2022-08-14T13:30:23.772Z,5.90
2022-08-14T13:32:57.933Z,5.60
2022-08-14T13:35:27.021Z,5.93
2022-08-14T13:37:55.853Z,6.67
2022-08-14T13:40:26.661Z,6.07
2022-08-14T13:42:57.558Z,6.23
2022-08-14T13:45:56.423Z,6.10
2022-08-14T13:48:27.403Z,6.07
2022-08-14T13:51:10.584Z,6.00
2022-08-14T13:54:06.939Z,6.00
2022-08-14T13:56:38.885Z,6.20
2022-08-14T13:59:07.708Z,6.17
2022-08-14T14:01:43.653Z,5.97
2022-08-14T14:04:19.467Z,6.37
2022-08-14T14:06:49.788Z,6.27
2022-08-14T14:09:32.360Z,5.87
2022-08-14T14:12:36.495Z,6.27
2022-08-14T14:14:57.087Z,6.43
2022-08-14T14:17:29.044Z,6.47
2022-08-14T14:20:00.581Z,6.20
2022-08-14T14:23:01.202Z,6.90
2022-08-14T14:25:22.395Z,6.03
2022-08-14T14:27:53.618Z,6.33
2022-08-14T14:30:52.126Z,5.33
2022-08-14T14:33:42.536Z,5.80
2022-08-14T14:36:06.297Z,5.50
2022-08-14T14:38:40.857Z,5.13
2022-08-14T14:41:10.661Z,5.40
2022-08-14T14:43:44.871Z,6.03
2022-08-14T14:46:16.350Z,5.80
2022-08-14T14:48:46.635Z,5.70
2022-08-14T14:51:24.240Z,5.90
2022-08-14T14:53:53.742Z,5.63
2022-08-14T14:56:50.803Z,5.87
2022-08-14T14:59:12.565Z,5.83
2022-08-14T15:01:41.695Z,5.70
2022-08-14T15:04:20.080Z,5.83
2022-08-14T15:06:50.235Z,6.03
2022-08-14T15:09:23.647Z,5.68
2022-08-14T15:11:52.123Z,6.07
2022-08-14T15:14:57.094Z,6.20
2022-08-14T15:17:10.566Z,5.70
2022-08-14T15:19:38.692Z,5.78
2022-08-14T15:22:10.540Z,5.75
2022-08-14T15:24:39.787Z,6.53
2022-08-14T15:27:09.300Z,6.07
2022-08-14T15:29:43.210Z,6.75
2022-08-14T15:32:11.899Z,6.55
2022-08-14T15:34:51.722Z,6.40
2022-08-14T15:37:23.899Z,6.68
2022-08-14T15:39:52.779Z,7.00
2022-08-14T15:42:22.929Z,6.53
2022-08-14T15:44:57.059Z,6.63
2022-08-14T15:47:29.346Z,6.78
2022-08-14T15:49:59.571Z,6.30
2022-08-14T15:52:32.609Z,6.38
2022-08-14T15:55:08.413Z,6.53
2022-08-14T15:58:02.088Z,6.88
2022-08-14T16:00:52.011Z,6.30
2022-08-14T16:03:27.025Z,6.50
2022-08-14T16:06:02.839Z,6.20
2022-08-14T16:08:32.366Z,6.57
2022-08-14T16:11:02.426Z,7.20
2022-08-14T16:13:39.344Z,6.20
2022-08-14T16:16:49.265Z,6.60
2022-08-14T16:19:10.297Z,6.60
2022-08-14T16:21:58.383Z,6.77
2022-08-14T16:24:34.736Z,7.77
2022-08-14T16:27:05.099Z,7.93
2022-08-14T16:29:35.754Z,10.70
2022-08-14T16:32:32.976Z,16.10
2022-08-14T16:34:55.804Z,15.17
2022-08-14T16:37:30.346Z,10.47
2022-08-14T16:40:02.069Z,6.77
2022-08-14T16:43:02.913Z,6.93
2022-08-14T16:45:24.988Z,6.57
2022-08-14T16:47:53.107Z,6.27
2022-08-14T16:50:40.650Z,6.07
2022-08-14T16:53:10.386Z,6.57
2022-08-14T16:55:53.306Z,6.43
2022-08-14T16:58:29.851Z,6.60
2022-08-14T17:01:23.090Z,6.73
2022-08-14T17:03:56.730Z,6.40
2022-08-14T17:06:46.926Z,6.77
2022-08-14T17:09:36.987Z,6.63
2022-08-14T17:12:33.710Z,7.00
2022-08-14T17:15:10.139Z,6.80
2022-08-14T17:17:57.757Z,7.10
2022-08-14T17:20:54.206Z,6.97
2022-08-14T17:23:16.313Z,7.37
2022-08-14T17:25:49.345Z,7.40
2022-08-14T17:28:52.526Z,7.60
2022-08-14T17:31:12.395Z,7.60
2022-08-14T17:33:44.591Z,7.23
2022-08-14T17:36:22.949Z,7.30
2022-08-14T17:39:06.378Z,7.30
2022-08-14T17:41:38.885Z,7.47
2022-08-14T17:44:34.169Z,7.70
2022-08-14T17:47:18.581Z,6.90
2022-08-14T17:49:51.782Z,7.20
2022-08-14T17:52:36.059Z,7.00
2022-08-14T17:55:12.528Z,6.63
2022-08-14T17:57:59.993Z,7.07
2022-08-14T18:00:30.703Z,6.97
2022-08-14T18:03:00.259Z,7.00
2022-08-14T18:06:07.488Z,7.40
2022-08-14T18:08:34.361Z,7.17
2022-08-14T18:11:15.314Z,7.83
2022-08-14T18:13:51.371Z,7.63
2022-08-14T18:16:23.004Z,7.80
2022-08-14T18:18:52.028Z,7.40
2022-08-14T18:21:39.650Z,7.90
2022-08-14T18:24:28.241Z,8.10
2022-08-14T18:27:08.772Z,7.10
2022-08-14T18:29:44.764Z,7.20
2022-08-14T18:32:47.056Z,7.40
2022-08-14T18:35:18.349Z,7.67
2022-08-14T18:37:56.054Z,7.33
2022-08-14T18:40:34.986Z,7.70
2022-08-14T18:43:06.246Z,7.73
2022-08-14T18:45:41.465Z,7.90
2022-08-14T18:48:50.158Z,7.33
2022-08-14T18:51:45.277Z,7.77
2022-08-14T18:54:29.980Z,7.60
2022-08-14T18:57:05.227Z,7.77
2022-08-14T18:59:36.502Z,7.97
2022-08-14T19:02:42.876Z,7.87
2022-08-14T19:05:13.501Z,7.93
2022-08-14T19:07:48.263Z,7.50
2022-08-14T19:10:31.844Z,7.83
2022-08-14T19:13:11.789Z,7.77
2022-08-14T19:15:43.316Z,7.70
2022-08-14T19:18:26.741Z,8.37
2022-08-14T19:20:59.826Z,7.87
2022-08-14T19:23:42.431Z,8.27
2022-08-14T19:26:37.620Z,7.60
2022-08-14T19:29:36.207Z,7.97
2022-08-14T19:32:36.694Z,8.50
2022-08-14T19:35:17.291Z,8.70
2022-08-14T19:37:52.179Z,10.67
2022-08-14T19:40:33.370Z,8.37
2022-08-14T19:43:08.911Z,8.00
2022-08-14T19:45:38.394Z,8.87
2022-08-14T19:48:14.574Z,7.80
2022-08-14T19:50:46.294Z,7.63
2022-08-14T19:53:18.274Z,8.17
2022-08-14T19:56:00.708Z,8.20
2022-08-14T19:58:54.750Z,7.83
2022-08-14T20:01:27.337Z,7.50
2022-08-14T20:04:08.495Z,7.70
2022-08-14T20:06:57.163Z,8.30
2022-08-14T20:11:07.361Z,7.70
2022-08-14T20:12:28.974Z,8.17
2022-08-14T20:15:06.882Z,8.10
2022-08-14T20:17:40.503Z,8.17
2022-08-14T20:20:20.870Z,8.33
2022-08-14T20:23:02.000Z,8.37
2022-08-14T20:25:37.900Z,8.63
2022-08-14T20:28:29.609Z,8.80
2022-08-14T20:31:13.941Z,9.33
2022-08-14T20:34:03.375Z,8.80
2022-08-14T20:36:31.694Z,8.70
2022-08-14T20:39:00.725Z,8.63
2022-08-14T20:41:30.246Z,8.63
2022-08-14T20:44:15.742Z,9.93
2022-08-14T20:46:50.038Z,9.13
2022-08-14T20:49:29.106Z,9.57
2022-08-14T20:52:00.105Z,9.73
2022-08-14T20:54:49.317Z,9.10
2022-08-14T20:57:20.867Z,9.00
2022-08-14T20:59:53.118Z,9.00
2022-08-14T21:02:38.703Z,9.23
2022-08-14T21:05:21.246Z,9.13
2022-08-14T21:07:51.226Z,8.97
2022-08-14T21:10:33.012Z,9.17
2022-08-14T21:13:25.628Z,8.50
2022-08-14T21:15:58.159Z,9.03
2022-08-14T21:18:29.446Z,8.83
2022-08-14T21:20:59.129Z,9.10
2022-08-14T21:23:32.797Z,8.77
2022-08-14T21:26:01.561Z,8.87
2022-08-14T21:28:35.534Z,8.37
2022-08-14T21:31:05.572Z,9.13
2022-08-14T21:33:36.379Z,10.10
2022-08-14T21:36:08.346Z,9.93
2022-08-14T21:38:42.417Z,10.03
2022-08-14T21:41:43.242Z,10.13
2022-08-14T21:44:17.371Z,10.10
2022-08-14T21:46:53.425Z,9.70
2022-08-14T21:49:34.045Z,9.70
2022-08-14T21:52:48.880Z,9.97
2022-08-14T21:55:00.732Z,10.00
2022-08-14T21:57:53.649Z,8.40
2022-08-14T22:00:30.439Z,9.30
2022-08-14T22:03:09.081Z,9.03
2022-08-14T22:05:41.124Z,10.53
2022-08-14T22:08:14.181Z,10.23
2022-08-14T22:10:46.422Z,9.60
2022-08-14T22:13:15.993Z,9.87
2022-08-14T22:15:49.760Z,9.53
2022-08-14T22:18:20.408Z,9.27
2022-08-14T22:20:53.366Z,9.50
2022-08-14T22:23:24.066Z,9.40
2022-08-14T22:25:52.774Z,9.10
2022-08-14T22:28:25.247Z,9.73
2022-08-14T22:30:57.601Z,9.73
2022-08-14T22:33:31.111Z,9.77
2022-08-14T22:36:02.039Z,9.10
2022-08-14T22:38:37.879Z,9.17
2022-08-14T22:41:25.650Z,9.43
2022-08-14T22:43:59.582Z,9.60
2022-08-14T22:46:28.093Z,9.63
2022-08-14T22:48:57.591Z,8.97
2022-08-14T22:51:27.838Z,8.67
2022-08-14T22:53:59.130Z,9.67
2022-08-14T22:56:30.580Z,9.07
2022-08-14T22:59:00.577Z,8.97
2022-08-14T23:01:57.305Z,8.90
2022-08-14T23:04:35.728Z,9.37
2022-08-14T23:07:22.581Z,9.00
2022-08-14T23:09:56.363Z,9.40
2022-08-14T23:12:29.515Z,9.50
2022-08-14T23:14:59.331Z,9.53
2022-08-14T23:17:38.605Z,9.90
2022-08-14T23:20:19.197Z,9.80
2022-08-14T23:22:51.872Z,9.67
2022-08-14T23:25:58.031Z,9.10
2022-08-14T23:28:34.417Z,9.67
2022-08-14T23:31:05.863Z,9.20
2022-08-14T23:33:36.409Z,9.00
2022-08-14T23:36:28.411Z,10.23
2022-08-14T23:39:02.145Z,10.20
2022-08-14T23:41:45.895Z,9.90
2022-08-14T23:44:21.759Z,10.40
2022-08-14T23:46:52.671Z,11.00
2022-08-14T23:49:25.453Z,11.10
2022-08-14T23:52:49.436Z,11.27
2022-08-14T23:54:48.256Z,11.27
2022-08-14T23:57:19.043Z,11.20
2022-08-14T23:59:54.321Z,11.63
